createdAt,value
2018-01-12T00:00:22.580Z,1016.25
2018-01-12T00:01:22.551Z,1016.22
2018-01-12T00:02:22.526Z,1016.24
2018-01-12T00:03:22.500Z,1016.23
2018-01-12T00:04:22.486Z,1016.25
2018-01-12T00:05:22.472Z,1016.22
2018-01-12T00:06:22.438Z,1016.23
2018-01-12T00:07:22.424Z,1016.21
2018-01-12T00:08:22.404Z,1016.22
2018-01-12T00:09:22.384Z,1016.25
2018-01-12T00:10:22.359Z,1016.26
2018-01-12T00:11:22.342Z,1016.28
2018-01-12T00:12:22.318Z,1016.26
2018-01-12T00:13:22.289Z,1016.26
2018-01-12T00:14:22.270Z,1016.25
2018-01-12T00:15:22.249Z,1016.24
2018-01-12T00:16:22.230Z,1016.23
2018-01-12T00:18:08.178Z,1016.21
2018-01-12T00:18:22.218Z,1016.21
2018-01-12T00:19:22.186Z,1016.18
2018-01-12T00:20:22.162Z,1016.19
2018-01-12T00:21:22.146Z,1016.15
2018-01-12T00:22:22.131Z,1016.18
2018-01-12T00:23:22.105Z,1016.14
2018-01-12T00:24:22.083Z,1016.13
2018-01-12T00:25:22.065Z,1016.16
2018-01-12T00:26:22.036Z,1016.10
2018-01-12T00:27:22.018Z,1016.11
2018-01-12T00:28:21.998Z,1016.17
2018-01-12T00:29:21.976Z,1016.16
2018-01-12T00:30:21.967Z,1016.15
2018-01-12T00:31:21.936Z,1016.16
2018-01-12T00:32:21.913Z,1016.17
2018-01-12T00:33:21.893Z,1016.21
2018-01-12T00:34:21.875Z,1016.19
2018-01-12T00:35:21.851Z,1016.21
2018-01-12T00:36:21.829Z,1016.21
2018-01-12T00:37:21.812Z,1016.21
2018-01-12T00:38:21.785Z,1016.18
2018-01-12T00:39:21.968Z,1016.23
2018-01-12T00:40:21.756Z,1016.21
2018-01-12T00:41:21.827Z,1016.25
2018-01-12T00:42:21.708Z,1016.24
2018-01-12T00:43:21.786Z,1016.23
2018-01-12T00:44:21.667Z,1016.22
2018-01-12T00:45:21.647Z,1016.24
2018-01-12T00:46:21.629Z,1016.23
2018-01-12T00:47:21.607Z,1016.23
2018-01-12T00:48:21.579Z,1016.22
2018-01-12T00:49:21.620Z,1016.21
2018-01-12T00:50:21.540Z,1016.25
2018-01-12T00:51:21.573Z,1016.30
2018-01-12T00:52:21.507Z,1016.33
2018-01-12T00:53:21.494Z,1016.34
2018-01-12T00:54:21.465Z,1016.34
2018-01-12T00:55:21.437Z,1016.34
2018-01-12T00:56:21.414Z,1016.34
2018-01-12T00:57:21.398Z,1016.35
2018-01-12T00:58:21.380Z,1016.34
2018-01-12T00:59:21.333Z,1016.36
2018-01-12T01:00:21.309Z,1016.35
2018-01-12T01:01:21.292Z,1016.36
2018-01-12T01:02:21.268Z,1016.38
2018-01-12T01:03:21.249Z,1016.39
2018-01-12T01:04:21.230Z,1016.41
2018-01-12T01:05:21.222Z,1016.41
2018-01-12T01:06:21.189Z,1016.42
2018-01-12T01:07:21.252Z,1016.42
2018-01-12T01:08:21.145Z,1016.45
2018-01-12T01:09:21.226Z,1016.44
2018-01-12T01:10:21.103Z,1016.43
2018-01-12T01:11:21.160Z,1016.43
2018-01-12T01:12:21.067Z,1016.45
2018-01-12T01:13:21.040Z,1016.44
2018-01-12T01:14:21.020Z,1016.42
2018-01-12T01:15:21.000Z,1016.33
2018-01-12T01:16:20.982Z,1016.33
2018-01-12T01:17:20.960Z,1016.33
2018-01-12T01:18:20.942Z,1016.31
2018-01-12T01:19:20.916Z,1016.32
2018-01-12T01:20:20.909Z,1016.30
2018-01-12T01:21:20.876Z,1016.33
2018-01-12T01:22:20.854Z,1016.30
2018-01-12T01:23:20.838Z,1016.32
2018-01-12T01:24:20.813Z,1016.29
2018-01-12T01:25:20.800Z,1016.31
2018-01-12T01:26:20.782Z,1016.30
2018-01-12T01:27:20.749Z,1016.32
2018-01-12T01:28:20.779Z,1016.37
2018-01-12T01:29:20.709Z,1016.37
2018-01-12T01:30:20.690Z,1016.39
2018-01-12T01:31:20.665Z,1016.39
2018-01-12T01:32:20.649Z,1016.41
2018-01-12T01:33:20.633Z,1016.44
2018-01-12T01:34:20.610Z,1016.45
2018-01-12T01:35:20.590Z,1016.46
2018-01-12T01:36:20.565Z,1016.51
2018-01-12T01:37:20.545Z,1016.47
2018-01-12T01:38:20.528Z,1016.49
2018-01-12T01:39:20.502Z,1016.49
2018-01-12T01:40:20.490Z,1016.51
2018-01-12T01:41:20.465Z,1016.53
2018-01-12T01:42:20.451Z,1016.53
2018-01-12T01:43:20.420Z,1016.55
2018-01-12T01:44:20.403Z,1016.54
2018-01-12T01:45:20.380Z,1016.56
2018-01-12T01:46:20.359Z,1016.58
2018-01-12T01:47:20.339Z,1016.59
2018-01-12T01:48:20.321Z,1016.59
2018-01-12T01:49:20.300Z,1016.62
2018-01-12T01:50:20.278Z,1016.61
2018-01-12T01:51:20.261Z,1016.62
2018-01-12T01:52:20.234Z,1016.64
2018-01-12T01:53:20.217Z,1016.65
2018-01-12T01:54:20.195Z,1016.63
2018-01-12T01:55:20.174Z,1016.66
2018-01-12T01:56:20.153Z,1016.71
2018-01-12T01:57:20.135Z,1016.73
2018-01-12T01:58:20.116Z,1016.77
2018-01-12T01:59:20.096Z,1016.77
2018-01-12T02:00:20.071Z,1016.79
2018-01-12T02:01:20.056Z,1016.80
2018-01-12T02:02:20.033Z,1016.78
2018-01-12T02:03:20.010Z,1016.82
2018-01-12T02:04:19.989Z,1016.82
2018-01-12T02:05:19.971Z,1016.86
2018-01-12T02:06:19.951Z,1016.85
2018-01-12T02:07:19.930Z,1016.86
2018-01-12T02:08:19.907Z,1016.85
2018-01-12T02:09:19.887Z,1016.87
2018-01-12T02:10:19.864Z,1016.89
2018-01-12T02:11:19.843Z,1016.87
2018-01-12T02:12:19.827Z,1016.89
2018-01-12T02:13:19.803Z,1016.91
2018-01-12T02:14:19.787Z,1016.92
2018-01-12T02:15:19.759Z,1016.93
2018-01-12T02:16:19.742Z,1016.88
2018-01-12T02:17:19.719Z,1016.96
2018-01-12T02:18:19.699Z,1016.95
2018-01-12T02:19:19.675Z,1017.00
2018-01-12T02:20:19.660Z,1017.00
2018-01-12T02:21:19.636Z,1017.05
2018-01-12T02:22:19.614Z,1017.03
2018-01-12T02:23:19.598Z,1017.08
2018-01-12T02:24:19.589Z,1017.06
2018-01-12T02:25:19.554Z,1017.08
2018-01-12T02:26:19.536Z,1017.07
2018-01-12T02:27:19.510Z,1017.08
2018-01-12T02:28:19.490Z,1017.08
2018-01-12T02:29:19.469Z,1017.08
2018-01-12T02:30:19.455Z,1017.13
2018-01-12T02:31:19.431Z,1017.12
2018-01-12T02:32:19.410Z,1017.10
2018-01-12T02:33:19.386Z,1017.09
2018-01-12T02:34:19.365Z,1017.07
2018-01-12T02:35:19.341Z,1017.08
2018-01-12T02:36:19.321Z,1017.05
2018-01-12T02:37:19.301Z,1017.02
2018-01-12T02:38:19.281Z,1017.02
2018-01-12T02:39:19.261Z,1017.00
2018-01-12T02:40:19.239Z,1017.02
2018-01-12T02:41:19.220Z,1016.99
2018-01-12T02:42:19.203Z,1017.02
2018-01-12T02:43:19.174Z,1017.05
2018-01-12T02:44:19.158Z,1017.00
2018-01-12T02:45:19.133Z,1017.03
2018-01-12T02:46:19.132Z,1017.01
2018-01-12T02:47:19.091Z,1016.99
2018-01-12T02:48:19.073Z,1017.03
2018-01-12T02:49:19.050Z,1017.05
2018-01-12T02:50:19.030Z,1017.05
2018-01-12T02:51:19.010Z,1017.04
2018-01-12T02:52:18.993Z,1017.07
2018-01-12T02:53:18.976Z,1017.07
2018-01-12T02:54:18.944Z,1017.06
2018-01-12T02:55:18.933Z,1017.08
2018-01-12T02:56:18.900Z,1017.06
2018-01-12T02:57:18.880Z,1017.01
2018-01-12T02:58:18.861Z,1017.06
2018-01-12T02:59:18.838Z,1017.05
2018-01-12T03:00:18.817Z,1017.09
2018-01-12T03:01:18.800Z,1017.07
2018-01-12T03:02:18.773Z,1017.08
2018-01-12T03:03:18.754Z,1017.09
2018-01-12T03:04:18.738Z,1017.06
2018-01-12T03:05:18.716Z,1017.10
2018-01-12T03:06:18.691Z,1017.13
2018-01-12T03:07:18.682Z,1017.15
2018-01-12T03:08:18.650Z,1017.17
2018-01-12T03:09:18.627Z,1017.22
2018-01-12T03:10:18.612Z,1017.21
2018-01-12T03:11:18.588Z,1017.21
2018-01-12T03:12:18.565Z,1017.21
2018-01-12T03:13:18.592Z,1017.23
2018-01-12T03:14:18.524Z,1017.22
2018-01-12T03:15:18.502Z,1017.22
2018-01-12T03:16:18.480Z,1017.22
2018-01-12T03:17:18.460Z,1017.21
2018-01-12T03:18:18.440Z,1017.19
2018-01-12T03:19:18.420Z,1017.24
2018-01-12T03:20:18.398Z,1017.20
2018-01-12T03:21:18.380Z,1017.19
2018-01-12T03:22:18.356Z,1017.25
2018-01-12T03:23:18.340Z,1017.25
2018-01-12T03:24:18.320Z,1017.27
2018-01-12T03:25:18.298Z,1017.32
2018-01-12T03:26:18.269Z,1017.29
2018-01-12T03:27:18.250Z,1017.29
2018-01-12T03:28:18.229Z,1017.24
2018-01-12T03:29:18.210Z,1017.29
2018-01-12T03:30:18.191Z,1017.31
2018-01-12T03:31:18.169Z,1017.27
2018-01-12T03:32:18.154Z,1017.28
2018-01-12T03:33:18.129Z,1017.25
2018-01-12T03:34:18.104Z,1017.31
2018-01-12T03:35:18.090Z,1017.31
2018-01-12T03:36:18.060Z,1017.34
2018-01-12T03:37:18.042Z,1017.31
2018-01-12T03:38:18.024Z,1017.27
2018-01-12T03:39:17.997Z,1017.28
2018-01-12T03:40:17.981Z,1017.33
2018-01-12T03:41:17.960Z,1017.30
2018-01-12T03:42:17.940Z,1017.26
2018-01-12T03:43:17.922Z,1017.29
2018-01-12T03:44:17.897Z,1017.27
2018-01-12T03:45:17.872Z,1017.28
2018-01-12T03:46:17.860Z,1017.30
2018-01-12T03:47:17.830Z,1017.30
2018-01-12T03:48:17.810Z,1017.28
2018-01-12T03:49:17.788Z,1017.32
2018-01-12T03:50:17.769Z,1017.33
2018-01-12T03:51:17.750Z,1017.29
2018-01-12T03:52:17.728Z,1017.26
2018-01-12T03:53:17.704Z,1017.26
2018-01-12T03:54:17.690Z,1017.27
2018-01-12T03:55:17.670Z,1017.29
2018-01-12T03:56:17.640Z,1017.28
2018-01-12T03:57:17.621Z,1017.30
2018-01-12T03:58:17.600Z,1017.29
2018-01-12T03:59:17.576Z,1017.30
2018-01-12T04:00:17.556Z,1017.30
2018-01-12T04:01:17.538Z,1017.29
2018-01-12T04:02:17.519Z,1017.31
2018-01-12T04:03:17.500Z,1017.32
2018-01-12T04:04:17.479Z,1017.30
2018-01-12T04:05:17.454Z,1017.28
2018-01-12T04:06:17.430Z,1017.28
2018-01-12T04:07:17.410Z,1017.30
2018-01-12T04:08:17.388Z,1017.35
2018-01-12T04:09:17.380Z,1017.35
2018-01-12T04:10:17.347Z,1017.39
2018-01-12T04:11:17.329Z,1017.39
2018-01-12T04:12:17.310Z,1017.40
2018-01-12T04:13:17.291Z,1017.41
2018-01-12T04:14:17.263Z,1017.39
2018-01-12T04:15:17.240Z,1017.44
2018-01-12T04:16:17.221Z,1017.44
2018-01-12T04:17:17.201Z,1017.44
2018-01-12T04:18:17.179Z,1017.41
2018-01-12T04:19:17.160Z,1017.42
2018-01-12T04:20:17.136Z,1017.39
2018-01-12T04:21:17.120Z,1017.39
2018-01-12T04:22:17.099Z,1017.37
2018-01-12T04:23:17.076Z,1017.39
2018-01-12T04:24:17.056Z,1017.37
2018-01-12T04:25:17.039Z,1017.40
2018-01-12T04:26:17.011Z,1017.39
2018-01-12T04:27:16.989Z,1017.38
2018-01-12T04:28:16.970Z,1017.35
2018-01-12T04:29:16.948Z,1017.38
2018-01-12T04:30:16.979Z,1017.31
2018-01-12T04:31:16.907Z,1017.33
2018-01-12T04:32:16.933Z,1017.33
2018-01-12T04:33:16.871Z,1017.40
2018-01-12T04:34:16.852Z,1017.40
2018-01-12T04:35:16.835Z,1017.42
2018-01-12T04:36:16.848Z,1017.45
2018-01-12T04:37:16.790Z,1017.44
2018-01-12T04:38:16.762Z,1017.42
2018-01-12T04:39:16.739Z,1017.45
2018-01-12T04:40:16.730Z,1017.46
2018-01-12T04:41:16.700Z,1017.47
2018-01-12T04:42:16.678Z,1017.44
2018-01-12T04:43:16.661Z,1017.46
2018-01-12T04:44:16.639Z,1017.46
2018-01-12T04:45:16.621Z,1017.44
2018-01-12T04:46:16.643Z,1017.44
2018-01-12T04:47:16.573Z,1017.45
2018-01-12T04:48:16.608Z,1017.41
2018-01-12T04:49:16.532Z,1017.42
2018-01-12T04:50:16.564Z,1017.45
2018-01-12T04:51:16.490Z,1017.45
2018-01-12T04:52:16.571Z,1017.46
2018-01-12T04:53:16.445Z,1017.44
2018-01-12T04:54:16.475Z,1017.46
2018-01-12T04:55:16.408Z,1017.45
2018-01-12T04:56:16.384Z,1017.42
2018-01-12T04:57:16.362Z,1017.43
2018-01-12T04:58:16.450Z,1017.46
2018-01-12T04:59:16.322Z,1017.42
2018-01-12T05:00:16.312Z,1017.45
2018-01-12T05:01:16.282Z,1017.43
2018-01-12T05:02:16.407Z,1017.42
2018-01-12T05:03:16.242Z,1017.45
2018-01-12T05:04:16.221Z,1017.45
2018-01-12T05:05:16.198Z,1017.44
2018-01-12T05:06:16.182Z,1017.47
2018-01-12T05:07:16.164Z,1017.49
2018-01-12T05:08:16.143Z,1017.44
2018-01-12T05:09:16.112Z,1017.43
2018-01-12T05:10:16.090Z,1017.49
2018-01-12T05:11:16.071Z,1017.48
2018-01-12T05:12:16.046Z,1017.46
2018-01-12T05:13:16.030Z,1017.47
2018-01-12T05:14:16.014Z,1017.44
2018-01-12T05:15:15.987Z,1017.45
2018-01-12T05:16:15.971Z,1017.47
2018-01-12T05:17:15.944Z,1017.42
2018-01-12T05:18:15.922Z,1017.46
2018-01-12T05:19:15.901Z,1017.43
2018-01-12T05:20:15.880Z,1017.48
2018-01-12T05:21:15.861Z,1017.49
2018-01-12T05:22:15.838Z,1017.47
2018-01-12T05:23:15.830Z,1017.46
2018-01-12T05:24:15.794Z,1017.54
2018-01-12T05:25:15.776Z,1017.52
2018-01-12T05:26:15.759Z,1017.51
2018-01-12T05:27:15.740Z,1017.54
2018-01-12T05:28:15.714Z,1017.53
2018-01-12T05:29:15.694Z,1017.52
2018-01-12T05:30:15.681Z,1017.55
2018-01-12T05:31:15.712Z,1017.55
2018-01-12T05:32:15.630Z,1017.53
2018-01-12T05:33:15.608Z,1017.51
2018-01-12T05:34:15.585Z,1017.54
2018-01-12T05:35:15.569Z,1017.51
2018-01-12T05:36:15.550Z,1017.53
2018-01-12T05:37:15.524Z,1017.55
2018-01-12T05:38:15.504Z,1017.54
2018-01-12T05:39:15.480Z,1017.55
2018-01-12T05:40:15.461Z,1017.56
2018-01-12T05:41:15.456Z,1017.54
2018-01-12T05:42:15.421Z,1017.53
2018-01-12T05:43:15.399Z,1017.52
2018-01-12T05:44:15.377Z,1017.55
2018-01-12T05:45:15.356Z,1017.52
2018-01-12T05:46:15.348Z,1017.57
2018-01-12T05:47:15.313Z,1017.57
2018-01-12T05:48:15.297Z,1017.54
2018-01-12T05:49:15.275Z,1017.53
2018-01-12T05:50:15.302Z,1017.53
2018-01-12T05:51:15.229Z,1017.51
2018-01-12T05:52:15.212Z,1017.55
2018-01-12T05:53:15.186Z,1017.55
2018-01-12T05:54:15.171Z,1017.56
2018-01-12T05:55:15.147Z,1017.56
2018-01-12T05:56:15.217Z,1017.55
2018-01-12T05:57:15.109Z,1017.53
2018-01-12T05:58:15.091Z,1017.53
2018-01-12T05:59:15.060Z,1017.51
2018-01-12T06:00:15.050Z,1017.51
2018-01-12T06:01:15.021Z,1017.50
2018-01-12T06:02:14.997Z,1017.53
2018-01-12T06:03:14.984Z,1017.48
2018-01-12T06:04:15.030Z,1017.49
2018-01-12T06:05:14.933Z,1017.51
2018-01-12T06:06:14.922Z,1017.51
2018-01-12T06:07:14.892Z,1017.51
2018-01-12T06:08:14.873Z,1017.52
2018-01-12T06:09:14.850Z,1017.51
2018-01-12T06:10:14.830Z,1017.48
2018-01-12T06:11:14.807Z,1017.46
2018-01-12T06:12:14.790Z,1017.53
2018-01-12T06:13:14.768Z,1017.49
2018-01-12T06:14:14.748Z,1017.50
2018-01-12T06:15:14.724Z,1017.54
2018-01-12T06:16:14.705Z,1017.56
2018-01-12T06:17:14.694Z,1017.59
2018-01-12T06:18:14.666Z,1017.59
2018-01-12T06:19:14.642Z,1017.59
2018-01-12T06:20:14.621Z,1017.68
2018-01-12T06:21:14.602Z,1017.65
2018-01-12T06:22:14.578Z,1017.63
2018-01-12T06:23:14.563Z,1017.63
2018-01-12T06:24:14.539Z,1017.66
2018-01-12T06:25:14.516Z,1017.65
2018-01-12T06:26:14.503Z,1017.65
2018-01-12T06:27:14.485Z,1017.69
2018-01-12T06:28:14.453Z,1017.73
2018-01-12T06:29:14.432Z,1017.76
2018-01-12T06:30:14.413Z,1017.77
2018-01-12T06:31:14.399Z,1017.73
2018-01-12T06:32:14.368Z,1017.76
2018-01-12T06:33:14.350Z,1017.79
2018-01-12T06:34:14.339Z,1017.82
2018-01-12T06:35:14.313Z,1017.82
2018-01-12T06:36:14.292Z,1017.83
2018-01-12T06:37:14.273Z,1017.86
2018-01-12T06:38:14.249Z,1017.87
2018-01-12T06:39:14.230Z,1017.90
2018-01-12T06:40:14.208Z,1017.90
2018-01-12T06:41:14.185Z,1017.93
2018-01-12T06:42:14.160Z,1017.90
2018-01-12T06:43:14.141Z,1017.88
2018-01-12T06:44:14.118Z,1017.94
2018-01-12T06:45:14.100Z,1017.95
2018-01-12T06:46:14.083Z,1017.95
2018-01-12T06:47:14.060Z,1017.95
2018-01-12T06:48:14.044Z,1017.94
2018-01-12T06:49:14.023Z,1017.96
2018-01-12T06:50:14.000Z,1017.99
2018-01-12T06:51:13.981Z,1017.96
2018-01-12T06:52:13.958Z,1017.95
2018-01-12T06:53:13.945Z,1017.95
2018-01-12T06:54:13.913Z,1017.97
2018-01-12T06:55:13.891Z,1018.03
2018-01-12T06:56:13.872Z,1018.03
2018-01-12T06:57:13.850Z,1017.99
2018-01-12T06:58:13.830Z,1018.04
2018-01-12T06:59:13.810Z,1017.99
2018-01-12T07:00:13.791Z,1017.99
2018-01-12T07:01:13.766Z,1018.02
2018-01-12T07:02:13.750Z,1018.02
2018-01-12T07:03:13.722Z,1017.98
2018-01-12T07:04:13.703Z,1017.97
2018-01-12T07:05:13.690Z,1017.97
2018-01-12T07:06:13.662Z,1018.00
2018-01-12T07:07:13.640Z,1018.00
2018-01-12T07:08:13.619Z,1018.02
2018-01-12T07:09:13.600Z,1017.97
2018-01-12T07:10:13.580Z,1017.96
2018-01-12T07:11:13.559Z,1017.94
2018-01-12T07:12:13.536Z,1017.97
2018-01-12T07:13:13.519Z,1017.98
2018-01-12T07:14:13.506Z,1017.96
2018-01-12T07:15:13.475Z,1018.00
2018-01-12T07:16:13.455Z,1018.03
2018-01-12T07:17:13.440Z,1018.03
2018-01-12T07:18:13.420Z,1018.05
2018-01-12T07:19:13.394Z,1018.06
2018-01-12T07:20:13.379Z,1018.08
2018-01-12T07:21:13.359Z,1018.03
2018-01-12T07:22:13.330Z,1018.11
2018-01-12T07:23:13.310Z,1018.08
2018-01-12T07:24:13.290Z,1018.09
2018-01-12T07:25:13.282Z,1018.09
2018-01-12T07:26:13.250Z,1018.04
2018-01-12T07:27:13.230Z,1018.01
2018-01-12T07:28:13.212Z,1018.04
2018-01-12T07:29:13.187Z,1018.02
2018-01-12T07:30:13.172Z,1018.04
2018-01-12T07:31:13.153Z,1018.02
2018-01-12T07:32:13.127Z,1018.03
2018-01-12T07:33:13.111Z,1018.08
2018-01-12T07:34:13.089Z,1018.11
2018-01-12T07:35:13.063Z,1018.13
2018-01-12T07:36:13.044Z,1018.12
2018-01-12T07:37:13.027Z,1018.12
2018-01-12T07:38:13.001Z,1018.13
2018-01-12T07:39:12.979Z,1018.18
2018-01-12T07:40:12.962Z,1018.19
2018-01-12T07:41:12.942Z,1018.17
2018-01-12T07:42:12.920Z,1018.22
2018-01-12T07:43:12.899Z,1018.21
2018-01-12T07:44:12.875Z,1018.21
2018-01-12T07:45:12.860Z,1018.23
2018-01-12T07:46:12.839Z,1018.23
2018-01-12T07:47:12.822Z,1018.24
2018-01-12T07:48:12.792Z,1018.24
2018-01-12T07:49:12.780Z,1018.25
2018-01-12T07:50:12.761Z,1018.25
2018-01-12T07:51:12.729Z,1018.26
2018-01-12T07:52:12.710Z,1018.27
2018-01-12T07:53:12.689Z,1018.29
2018-01-12T07:54:12.668Z,1018.34
2018-01-12T07:55:12.646Z,1018.34
2018-01-12T07:56:12.626Z,1018.36
2018-01-12T07:57:12.607Z,1018.40
2018-01-12T07:58:12.589Z,1018.42
2018-01-12T07:59:12.569Z,1018.42
2018-01-12T08:00:12.541Z,1018.46
2018-01-12T08:01:12.523Z,1018.47
2018-01-12T08:02:12.504Z,1018.45
2018-01-12T08:03:12.480Z,1018.46
2018-01-12T08:04:12.463Z,1018.56
2018-01-12T08:05:12.439Z,1018.57
2018-01-12T08:06:12.416Z,1018.55
2018-01-12T08:07:12.400Z,1018.62
2018-01-12T08:08:12.378Z,1018.60
2018-01-12T08:09:12.359Z,1018.63
2018-01-12T08:10:12.332Z,1018.62
2018-01-12T08:11:12.315Z,1018.63
2018-01-12T08:12:12.289Z,1018.67
2018-01-12T08:13:12.268Z,1018.65
2018-01-12T08:14:12.249Z,1018.65
2018-01-12T08:15:12.229Z,1018.68
2018-01-12T08:16:12.205Z,1018.67
2018-01-12T08:17:12.189Z,1018.67
2018-01-12T08:18:12.169Z,1018.65
2018-01-12T08:19:12.143Z,1018.70
2018-01-12T08:20:12.128Z,1018.70
2018-01-12T08:21:12.108Z,1018.75
2018-01-12T08:22:12.080Z,1018.74
2018-01-12T08:23:12.059Z,1018.75
2018-01-12T08:24:12.044Z,1018.79
2018-01-12T08:25:12.016Z,1018.81
2018-01-12T08:26:12.000Z,1018.83
2018-01-12T08:27:11.981Z,1018.86
2018-01-12T08:28:11.958Z,1018.92
2018-01-12T08:29:11.941Z,1018.88
2018-01-12T08:30:11.911Z,1018.90
2018-01-12T08:31:11.890Z,1018.93
2018-01-12T08:32:11.871Z,1018.99
2018-01-12T08:33:11.849Z,1018.97
2018-01-12T08:34:11.830Z,1018.96
2018-01-12T08:35:11.809Z,1019.00
2018-01-12T08:36:11.791Z,1018.99
2018-01-12T08:37:11.826Z,1019.03
2018-01-12T08:38:11.746Z,1019.03
2018-01-12T08:39:11.719Z,1019.05
2018-01-12T08:40:11.699Z,1019.07
2018-01-12T08:41:11.679Z,1019.08
2018-01-12T08:42:11.657Z,1019.12
2018-01-12T08:43:11.640Z,1019.09
2018-01-12T08:44:11.619Z,1019.12
2018-01-12T08:45:11.595Z,1019.14
2018-01-12T08:46:11.572Z,1019.16
2018-01-12T08:47:11.610Z,1019.20
2018-01-12T08:48:11.528Z,1019.18
2018-01-12T08:49:11.559Z,1019.16
2018-01-12T08:50:11.490Z,1019.21
2018-01-12T08:51:11.520Z,1019.21
2018-01-12T08:52:11.449Z,1019.23
2018-01-12T08:53:11.585Z,1019.23
2018-01-12T08:54:11.416Z,1019.19
2018-01-12T08:55:11.386Z,1019.24
2018-01-12T08:56:11.362Z,1019.25
2018-01-12T08:57:11.393Z,1019.24
2018-01-12T08:58:11.334Z,1019.23
2018-01-12T08:59:11.369Z,1019.28
2018-01-12T09:00:11.289Z,1019.31
2018-01-12T09:01:11.259Z,1019.31
2018-01-12T09:02:11.249Z,1019.31
2018-01-12T09:03:11.219Z,1019.34
2018-01-12T09:04:11.190Z,1019.32
2018-01-12T09:05:11.178Z,1019.30
2018-01-12T09:06:11.162Z,1019.29
2018-01-12T09:07:11.136Z,1019.31
2018-01-12T09:08:11.109Z,1019.33
2018-01-12T09:09:11.090Z,1019.31
2018-01-12T09:10:11.073Z,1019.28
2018-01-12T09:11:11.049Z,1019.31
2018-01-12T09:12:11.031Z,1019.32
2018-01-12T09:13:11.011Z,1019.33
2018-01-12T09:14:10.990Z,1019.33
2018-01-12T09:15:10.969Z,1019.37
2018-01-12T09:16:10.950Z,1019.41
2018-01-12T09:17:10.925Z,1019.40
2018-01-12T09:18:10.904Z,1019.37
2018-01-12T09:19:10.887Z,1019.43
2018-01-12T09:20:10.862Z,1019.42
2018-01-12T09:21:10.839Z,1019.40
2018-01-12T09:22:10.820Z,1019.43
2018-01-12T09:23:10.800Z,1019.43
2018-01-12T09:24:10.781Z,1019.42
2018-01-12T09:25:10.760Z,1019.41
2018-01-12T09:26:10.739Z,1019.41
2018-01-12T09:27:10.720Z,1019.42
2018-01-12T09:28:10.692Z,1019.41
2018-01-12T09:29:10.680Z,1019.44
2018-01-12T09:30:10.653Z,1019.39
2018-01-12T09:31:10.632Z,1019.39
2018-01-12T09:32:10.609Z,1019.40
2018-01-12T09:33:10.590Z,1019.40
2018-01-12T09:34:10.571Z,1019.46
2018-01-12T09:35:10.547Z,1019.46
2018-01-12T09:36:10.525Z,1019.51
2018-01-12T09:37:10.506Z,1019.49
2018-01-12T09:38:10.492Z,1019.53
2018-01-12T09:39:10.480Z,1019.54
2018-01-12T09:40:10.443Z,1019.58
2018-01-12T09:41:10.420Z,1019.59
2018-01-12T09:42:10.410Z,1019.54
2018-01-12T09:43:10.431Z,1019.59
2018-01-12T09:44:10.369Z,1019.59
2018-01-12T09:45:10.443Z,1019.61
2018-01-12T09:46:10.323Z,1019.63
2018-01-12T09:47:10.449Z,1019.62
2018-01-12T09:48:10.278Z,1019.61
2018-01-12T09:49:10.263Z,1019.64
2018-01-12T09:50:10.239Z,1019.61
2018-01-12T09:51:10.217Z,1019.63
2018-01-12T09:52:10.194Z,1019.63
2018-01-12T09:53:10.207Z,1019.63
2018-01-12T09:54:10.151Z,1019.64
2018-01-12T09:55:10.137Z,1019.68
2018-01-12T09:56:10.111Z,1019.69
2018-01-12T09:57:10.165Z,1019.67
2018-01-12T09:58:10.070Z,1019.71
2018-01-12T09:59:10.101Z,1019.74
2018-01-12T10:00:10.025Z,1019.68
2018-01-12T10:01:10.023Z,1019.71
2018-01-12T10:02:09.995Z,1019.73
2018-01-12T10:03:10.061Z,1019.74
2018-01-12T10:04:09.942Z,1019.75
2018-01-12T10:05:09.935Z,1019.74
2018-01-12T10:06:09.905Z,1019.75
2018-01-12T10:07:09.882Z,1019.74
2018-01-12T10:08:09.858Z,1019.74
2018-01-12T10:09:09.843Z,1019.73
2018-01-12T10:10:09.819Z,1019.70
2018-01-12T10:11:09.799Z,1019.73
2018-01-12T10:12:09.776Z,1019.72
2018-01-12T10:13:09.758Z,1019.67
2018-01-12T10:14:09.736Z,1019.70
2018-01-12T10:15:09.721Z,1019.72
2018-01-12T10:16:09.695Z,1019.72
2018-01-12T10:17:09.680Z,1019.71
2018-01-12T10:18:09.655Z,1019.73
2018-01-12T10:19:09.686Z,1019.71
2018-01-12T10:20:09.614Z,1019.74
2018-01-12T10:21:09.600Z,1019.75
2018-01-12T10:22:09.574Z,1019.74
2018-01-12T10:23:09.550Z,1019.77
2018-01-12T10:24:09.529Z,1019.77
2018-01-12T10:25:09.511Z,1019.79
2018-01-12T10:26:09.489Z,1019.78
2018-01-12T10:27:09.468Z,1019.77
2018-01-12T10:28:09.449Z,1019.77
2018-01-12T10:29:09.447Z,1019.76
2018-01-12T10:30:09.410Z,1019.75
2018-01-12T10:31:09.382Z,1019.74
2018-01-12T10:32:09.363Z,1019.74
2018-01-12T10:33:09.341Z,1019.79
2018-01-12T10:34:09.334Z,1019.77
2018-01-12T10:35:09.299Z,1019.78
2018-01-12T10:36:09.279Z,1019.78
2018-01-12T10:37:09.260Z,1019.78
2018-01-12T10:38:09.239Z,1019.74
2018-01-12T10:39:09.224Z,1019.76
2018-01-12T10:40:09.200Z,1019.74
2018-01-12T10:41:09.174Z,1019.77
2018-01-12T10:42:09.160Z,1019.77
2018-01-12T10:43:09.140Z,1019.78
2018-01-12T10:44:09.114Z,1019.77
2018-01-12T10:45:09.101Z,1019.70
2018-01-12T10:46:09.078Z,1019.73
2018-01-12T10:47:09.053Z,1019.68
2018-01-12T10:48:09.031Z,1019.68
2018-01-12T10:49:09.012Z,1019.67
2018-01-12T10:50:09.000Z,1019.65
2018-01-12T10:51:08.969Z,1019.66
2018-01-12T10:52:08.953Z,1019.67
2018-01-12T10:53:08.927Z,1019.69
2018-01-12T10:54:08.904Z,1019.71
2018-01-12T10:55:08.889Z,1019.71
2018-01-12T10:56:08.874Z,1019.70
2018-01-12T10:57:08.843Z,1019.73
2018-01-12T10:58:08.825Z,1019.69
2018-01-12T10:59:08.800Z,1019.75
2018-01-12T11:00:08.803Z,1019.74
2018-01-12T11:01:08.759Z,1019.75
2018-01-12T11:02:08.740Z,1019.68
2018-01-12T11:03:08.718Z,1019.76
2018-01-12T11:04:08.702Z,1019.74
2018-01-12T11:05:08.690Z,1019.74
2018-01-12T11:06:08.660Z,1019.72
2018-01-12T11:07:08.650Z,1019.72
2018-01-12T11:08:08.621Z,1019.74
2018-01-12T11:09:08.602Z,1019.70
2018-01-12T11:10:08.573Z,1019.69
2018-01-12T11:11:08.561Z,1019.73
2018-01-12T11:12:08.540Z,1019.72
2018-01-12T11:13:08.520Z,1019.73
2018-01-12T11:14:08.493Z,1019.75
2018-01-12T11:15:08.471Z,1019.75
2018-01-12T11:16:08.452Z,1019.70
2018-01-12T11:17:08.431Z,1019.74
2018-01-12T11:18:08.431Z,1019.74
2018-01-12T11:19:08.392Z,1019.72
2018-01-12T11:20:08.372Z,1019.66
2018-01-12T11:21:08.350Z,1019.65
2018-01-12T11:22:08.331Z,1019.67
2018-01-12T11:23:08.309Z,1019.67
2018-01-12T11:24:08.288Z,1019.69
2018-01-12T11:25:08.273Z,1019.67
2018-01-12T11:26:08.251Z,1019.62
2018-01-12T11:27:08.225Z,1019.62
2018-01-12T11:28:08.205Z,1019.66
2018-01-12T11:29:08.193Z,1019.61
2018-01-12T11:30:08.170Z,1019.61
2018-01-12T11:31:08.144Z,1019.57
2018-01-12T11:32:08.119Z,1019.59
2018-01-12T11:33:08.100Z,1019.59
2018-01-12T11:34:08.083Z,1019.52
2018-01-12T11:35:08.059Z,1019.55
2018-01-12T11:36:08.041Z,1019.54
2018-01-12T11:37:08.020Z,1019.57
2018-01-12T11:38:08.004Z,1019.53
2018-01-12T11:39:07.981Z,1019.52
2018-01-12T11:40:07.960Z,1019.51
2018-01-12T11:41:07.953Z,1019.54
2018-01-12T11:42:07.914Z,1019.50
2018-01-12T11:43:07.901Z,1019.48
2018-01-12T11:44:07.890Z,1019.49
2018-01-12T11:45:07.861Z,1019.50
2018-01-12T11:46:07.836Z,1019.47
2018-01-12T11:47:07.814Z,1019.48
2018-01-12T11:48:07.795Z,1019.53
2018-01-12T11:49:07.773Z,1019.52
2018-01-12T11:50:07.755Z,1019.52
2018-01-12T11:51:07.730Z,1019.51
2018-01-12T11:52:07.711Z,1019.51
2018-01-12T11:53:07.690Z,1019.49
2018-01-12T11:54:07.681Z,1019.47
2018-01-12T11:55:07.658Z,1019.47
2018-01-12T11:56:07.626Z,1019.50
2018-01-12T11:57:07.605Z,1019.47
2018-01-12T11:58:07.587Z,1019.45
2018-01-12T11:59:07.561Z,1019.45
2018-01-12T12:00:07.549Z,1019.42
2018-01-12T12:01:07.531Z,1019.45
2018-01-12T12:02:07.510Z,1019.47
2018-01-12T12:03:07.484Z,1019.47
2018-01-12T12:04:07.459Z,1019.48
2018-01-12T12:05:07.441Z,1019.50